Time;durP1;ratioP1;P1;durP2;ratioP2;P2;SDS_P1;SDS_P2;PMS_P1;PMS_P2;Temp;Humidity;BMP_temperature;BMP_pressure;BME280_temperature;BME280_humidity;BME280_pressure;Samples;Min_cycle;Max_cycle;Signal;HPM_P1;HPM_P2
2023/01/06 00:01:33;;;;;;;5.00;1.70;;;9.10;99.90;;;;;;5111201;28;20208;-80
2023/01/06 00:04:02;;;;;;;5.32;2.17;;;9.20;99.90;;;;;;5111079;28;20219;-79
2023/01/06 00:06:32;;;;;;;26.02;2.65;;;9.20;99.90;;;;;;5110875;28;20220;-79
2023/01/06 00:09:02;;;;;;;5.50;2.20;;;9.30;99.90;;;;;;5110774;28;20214;-80
2023/01/06 00:11:31;;;;;;;3.38;2.00;;;9.30;99.90;;;;;;5110954;28;20204;-79
2023/01/06 00:14:00;;;;;;;3.55;1.90;;;9.20;99.90;;;;;;5110894;28;20211;-79
2023/01/06 00:16:28;;;;;;;3.10;1.80;;;9.20;99.90;;;;;;5110921;28;20228;-80
2023/01/06 00:18:58;;;;;;;2.83;1.98;;;9.30;99.90;;;;;;5110134;28;20254;-80
2023/01/06 00:21:27;;;;;;;4.55;1.98;;;9.30;99.90;;;;;;5110621;28;20208;-80
2023/01/06 00:23:57;;;;;;;4.18;2.10;;;9.30;99.90;;;;;;5110579;28;20216;-80
2023/01/06 00:26:25;;;;;;;5.35;2.20;;;9.30;99.90;;;;;;5110717;28;20235;-79
2023/01/06 00:28:54;;;;;;;3.65;1.85;;;9.30;99.90;;;;;;5110770;28;20286;-80
2023/01/06 00:31:23;;;;;;;2.00;1.55;;;9.30;99.90;;;;;;5110609;28;20215;-80
2023/01/06 00:33:51;;;;;;;2.42;2.00;;;9.30;99.90;;;;;;5110639;28;20211;-79
2023/01/06 00:36:20;;;;;;;3.13;2.47;;;9.40;99.90;;;;;;5110507;28;20235;-80
2023/01/06 00:38:49;;;;;;;2.72;1.83;;;9.40;99.90;;;;;;5109880;28;20227;-80
2023/01/06 00:44:05;;;;;;;2.95;1.80;;;9.40;99.90;;;;;;5110432;28;20203;-80
2023/01/06 00:46:34;;;;;;;2.67;1.90;;;9.40;99.90;;;;;;5110414;28;20232;-80
2023/01/06 00:49:03;;;;;;;7.72;1.80;;;9.40;99.90;;;;;;5109912;28;20208;-80
2023/01/06 00:51:34;;;;;;;3.28;1.98;;;9.40;99.90;;;;;;5110546;28;20212;-80
2023/01/06 00:54:03;;;;;;;5.20;1.92;;;9.40;99.90;;;;;;5110952;28;20200;-80
2023/01/06 00:56:35;;;;;;;15.60;3.00;;;9.40;99.90;;;;;;5110854;28;20235;-80
2023/01/06 00:59:04;;;;;;;2.70;1.58;;;9.40;99.90;;;;;;5111330;28;20235;-80
2023/01/06 01:01:33;;;;;;;4.85;2.00;;;9.40;99.90;;;;;;5114329;28;20203;-80
2023/01/06 01:04:02;;;;;;;5.20;2.00;;;9.40;99.90;;;;;;5114183;28;20275;-80
2023/01/06 01:06:30;;;;;;;4.07;2.28;;;9.40;99.90;;;;;;5114447;28;20234;-80
2023/01/06 01:09:00;;;;;;;3.90;2.20;;;9.40;99.90;;;;;;5114566;28;20212;-80
2023/01/06 01:14:18;;;;;;;4.88;2.00;;;9.40;99.90;;;;;;5114046;28;20222;-80
2023/01/06 01:16:46;;;;;;;1.98;1.80;;;9.40;99.90;;;;;;5113862;28;20263;-80
2023/01/06 01:19:15;;;;;;;4.10;2.10;;;9.30;99.90;;;;;;5113859;28;20318;-80
2023/01/06 01:21:43;;;;;;;8.40;2.35;;;9.40;99.90;;;;;;5113672;28;20271;-80
2023/01/06 01:24:12;;;;;;;4.28;2.13;;;9.40;99.90;;;;;;5114094;28;20219;-80
2023/01/06 01:26:41;;;;;;;2.55;1.77;;;9.40;99.90;;;;;;5113817;28;20238;-80
2023/01/06 01:29:11;;;;;;;4.80;2.58;;;9.40;99.90;;;;;;5115168;28;20257;-80
2023/01/06 01:31:41;;;;;;;3.60;2.30;;;9.30;99.90;;;;;;5115877;28;20246;-80
2023/01/06 01:34:14;;;;;;;12.43;2.05;;;9.40;99.90;;;;;;5116227;28;20208;-79
2023/01/06 01:36:44;;;;;;;3.75;1.90;;;9.40;99.90;;;;;;5115609;28;20230;-80
2023/01/06 01:39:13;;;;;;;3.30;2.17;;;9.40;99.90;;;;;;5115791;28;20227;-80
2023/01/06 01:41:42;;;;;;;3.75;2.10;;;9.40;99.90;;;;;;5115594;28;20211;-80
2023/01/06 01:44:48;;;;;;;3.20;2.08;;;9.40;99.90;;;;;;5115283;28;20203;-80
2023/01/06 01:47:23;;;;;;;2.83;2.25;;;9.40;99.90;;;;;;5115693;28;20203;-80
2023/01/06 01:49:55;;;;;;;4.55;2.30;;;9.30;99.90;;;;;;5115750;28;20214;-80
2023/01/06 01:52:24;;;;;;;2.15;1.85;;;9.30;99.90;;;;;;5115743;28;20215;-80
2023/01/06 01:54:53;;;;;;;8.40;2.38;;;9.30;99.90;;;;;;5115952;28;20215;-80
2023/01/06 01:57:26;;;;;;;2.03;1.80;;;9.30;99.90;;;;;;5115002;28;20212;-80
2023/01/06 01:59:54;;;;;;;11.93;2.20;;;9.30;99.90;;;;;;5115392;28;20227;-80
2023/01/06 02:02:24;;;;;;;3.40;1.90;;;9.20;99.90;;;;;;5115965;28;20203;-80
2023/01/06 02:04:55;;;;;;;3.47;1.98;;;9.20;99.90;;;;;;5115596;28;20220;-80
2023/01/06 02:07:26;;;;;;;14.70;2.30;;;9.20;99.90;;;;;;5115254;28;20210;-80
2023/01/06 02:10:02;;;;;;;4.60;2.17;;;9.20;99.90;;;;;;5114780;28;20287;-80
2023/01/06 02:12:31;;;;;;;1.98;1.75;;;9.20;99.90;;;;;;5114883;28;20204;-80
2023/01/06 02:14:59;;;;;;;5.18;2.35;;;9.20;99.90;;;;;;5115449;28;20234;-80
2023/01/06 02:17:48;;;;;;;3.33;2.00;;;9.10;99.90;;;;;;5115472;28;20210;-80
2023/01/06 02:20:41;;;;;;;6.40;2.15;;;9.10;99.90;;;;;;5114617;28;20219;-80
2023/01/06 02:23:40;;;;;;;4.80;2.17;;;9.10;99.90;;;;;;5115383;28;20210;-80
2023/01/06 02:26:53;;;;;;;2.13;1.73;;;9.10;99.90;;;;;;5114915;28;20306;-80
2023/01/06 02:29:46;;;;;;;16.42;2.55;;;9.00;99.90;;;;;;5115278;28;20199;-80
2023/01/06 02:32:40;;;;;;;4.55;2.03;;;9.00;99.90;;;;;;5106472;28;20290;-80
2023/01/06 02:35:30;;;;;;;6.38;2.60;;;9.10;99.90;;;;;;5115223;27;20234;-80
2023/01/06 02:38:07;;;;;;;3.13;2.22;;;9.10;99.90;;;;;;5114355;28;20216;-80
2023/01/06 02:40:50;;;;;;;16.35;2.25;;;9.00;99.90;;;;;;5114617;28;20226;-80
2023/01/06 02:43:26;;;;;;;8.73;2.05;;;9.00;99.90;;;;;;5114710;28;20214;-80
2023/01/06 02:46:06;;;;;;;2.33;1.80;;;9.00;99.90;;;;;;5114457;28;20224;-80
2023/01/06 02:48:44;;;;;;;3.65;1.95;;;9.00;99.90;;;;;;5114180;28;20209;-79
2023/01/06 02:51:17;;;;;;;2.78;1.75;;;8.90;99.90;;;;;;5114393;28;20207;-80
2023/01/06 02:54:00;;;;;;;5.47;2.15;;;8.90;99.90;;;;;;5114425;28;20242;-80
2023/01/06 02:56:36;;;;;;;5.07;2.55;;;8.90;99.90;;;;;;5114471;28;20310;-80
2023/01/06 02:59:09;;;;;;;3.08;2.10;;;8.90;99.90;;;;;;5113934;28;20206;-80
2023/01/06 03:01:41;;;;;;;5.47;2.17;;;8.90;99.90;;;;;;5114370;28;20294;-80
2023/01/06 03:04:16;;;;;;;3.33;2.05;;;8.80;99.90;;;;;;5114310;28;20238;-80
2023/01/06 03:06:48;;;;;;;3.28;2.20;;;8.80;99.90;;;;;;5113792;28;20223;-80
2023/01/06 03:09:20;;;;;;;3.35;2.20;;;8.80;99.90;;;;;;5113855;28;20249;-79
2023/01/06 03:11:51;;;;;;;2.88;2.03;;;8.70;99.90;;;;;;5113939;28;20214;-79
2023/01/06 03:14:25;;;;;;;3.90;1.90;;;8.70;99.90;;;;;;5113982;28;20207;-80
2023/01/06 03:16:54;;;;;;;3.92;1.88;;;8.60;99.90;;;;;;5113986;28;20251;-80
2023/01/06 03:19:24;;;;;;;6.78;2.58;;;8.60;99.90;;;;;;5113906;28;20220;-79
2023/01/06 03:21:54;;;;;;;2.78;2.00;;;8.50;99.90;;;;;;5113482;28;20219;-80
2023/01/06 03:24:22;;;;;;;4.03;2.35;;;8.40;99.90;;;;;;5113835;28;20207;-79
2023/01/06 03:26:52;;;;;;;4.32;2.38;;;8.40;99.90;;;;;;5113521;28;20223;-79
2023/01/06 03:29:22;;;;;;;2.90;1.98;;;8.40;99.90;;;;;;5113394;28;20260;-80
2023/01/06 03:32:00;;;;;;;8.50;3.05;;;8.30;99.90;;;;;;5113718;28;20215;-80
2023/01/06 03:34:43;;;;;;;26.05;2.92;;;8.30;99.90;;;;;;5113921;28;20203;-79
2023/01/06 03:37:24;;;;;;;5.05;2.67;;;8.20;99.90;;;;;;5113212;28;20235;-79
2023/01/06 03:40:00;;;;;;;1.92;1.80;;;8.20;99.90;;;;;;5113659;28;20222;-80
2023/01/06 03:45:35;;;;;;;7.70;2.17;;;8.20;99.90;;;;;;5113716;28;20224;-81
2023/01/06 03:48:09;;;;;;;4.68;2.30;;;8.10;99.90;;;;;;5113277;28;20212;-79
2023/01/06 03:50:42;;;;;;;2.83;1.60;;;8.10;99.90;;;;;;5113139;28;20206;-80
2023/01/06 03:53:24;;;;;;;4.90;2.17;;;8.10;99.90;;;;;;5113338;28;20211;-80
2023/01/06 03:56:03;;;;;;;4.03;2.30;;;8.10;99.90;;;;;;5113030;28;20233;-80
2023/01/06 03:58:31;;;;;;;2.53;1.85;;;8.10;99.90;;;;;;5113228;28;20205;-80
2023/01/06 04:01:01;;;;;;;5.43;2.42;;;8.00;99.90;;;;;;5113189;28;20303;-80
2023/01/06 04:03:29;;;;;;;4.50;2.67;;;8.00;99.90;;;;;;5112969;28;20204;-80
2023/01/06 04:05:59;;;;;;;3.13;2.35;;;7.90;99.90;;;;;;5113615;28;20220;-80
2023/01/06 04:08:27;;;;;;;6.05;2.50;;;7.90;99.90;;;;;;5113009;28;20271;-80
2023/01/06 04:10:55;;;;;;;4.45;2.22;;;7.90;99.90;;;;;;5112769;28;20206;-80
2023/01/06 04:13:23;;;;;;;4.80;2.47;;;7.90;99.90;;;;;;5113503;28;20304;-80
2023/01/06 04:15:51;;;;;;;5.13;2.80;;;7.90;99.90;;;;;;5113020;28;20253;-80
2023/01/06 04:18:19;;;;;;;3.10;1.90;;;7.90;99.90;;;;;;5113085;28;20271;-80
2023/01/06 04:20:47;;;;;;;6.15;2.58;;;7.90;99.90;;;;;;5112684;28;20224;-80
2023/01/06 04:23:17;;;;;;;5.47;2.58;;;7.90;99.90;;;;;;5112999;28;20210;-80
2023/01/06 04:25:46;;;;;;;5.85;2.58;;;7.80;99.90;;;;;;5113412;28;20310;-81
2023/01/06 04:28:14;;;;;;;4.90;2.13;;;7.80;99.90;;;;;;5112653;28;20196;-80
2023/01/06 04:30:42;;;;;;;3.58;2.30;;;7.80;99.90;;;;;;5112914;28;20283;-80
2023/01/06 04:33:11;;;;;;;9.85;2.72;;;7.80;99.90;;;;;;5114552;28;20195;-80
2023/01/06 04:35:39;;;;;;;6.10;2.50;;;7.80;99.90;;;;;;5116920;28;20220;-80
2023/01/06 04:38:08;;;;;;;5.15;2.13;;;7.90;99.90;;;;;;5116801;28;20200;-80
2023/01/06 04:40:38;;;;;;;4.93;2.50;;;7.80;99.90;;;;;;5116677;28;20229;-80
2023/01/06 04:43:06;;;;;;;5.25;2.47;;;7.80;99.90;;;;;;5116660;28;20286;-80
2023/01/06 04:45:35;;;;;;;5.90;1.92;;;7.90;99.90;;;;;;5116957;28;20310;-80
2023/01/06 04:48:03;;;;;;;4.55;2.30;;;7.90;99.90;;;;;;5116491;28;20242;-80
2023/01/06 04:50:32;;;;;;;4.88;2.42;;;7.90;99.90;;;;;;5116877;28;20206;-80
2023/01/06 04:53:00;;;;;;;8.80;2.38;;;7.90;99.90;;;;;;5116876;28;20215;-80
2023/01/06 04:55:29;;;;;;;3.35;2.10;;;7.90;99.90;;;;;;5116808;28;20232;-80
2023/01/06 04:57:58;;;;;;;8.18;2.60;;;7.90;99.90;;;;;;5116718;28;20203;-80
2023/01/06 05:00:27;;;;;;;2.95;1.92;;;7.90;99.90;;;;;;5116673;28;20260;-80
2023/01/06 05:02:55;;;;;;;4.85;2.20;;;7.90;99.90;;;;;;5116654;28;20204;-81
2023/01/06 05:05:23;;;;;;;5.72;2.50;;;7.90;99.90;;;;;;5116560;28;20238;-80
2023/01/06 05:07:54;;;;;;;2.97;2.00;;;7.90;99.90;;;;;;5115964;28;20215;-80
2023/01/06 05:10:22;;;;;;;3.10;2.00;;;7.90;99.90;;;;;;5116228;28;20206;-81
2023/01/06 05:12:51;;;;;;;3.80;2.35;;;7.90;99.90;;;;;;5116454;28;20219;-80
2023/01/06 05:15:20;;;;;;;5.47;2.38;;;7.90;99.90;;;;;;5116216;28;20232;-80
2023/01/06 05:17:49;;;;;;;2.75;1.85;;;7.90;99.90;;;;;;5116195;28;20226;-80
2023/01/06 05:20:17;;;;;;;4.13;2.58;;;8.00;99.90;;;;;;5116372;28;20219;-80
2023/01/06 05:22:45;;;;;;;4.30;2.33;;;8.00;99.90;;;;;;5115967;28;20299;-80
2023/01/06 05:25:14;;;;;;;4.47;2.60;;;8.00;99.90;;;;;;5115744;28;20226;-80
2023/01/06 05:27:42;;;;;;;3.45;2.08;;;8.00;99.90;;;;;;5115896;28;20203;-80
2023/01/06 05:30:11;;;;;;;3.95;2.03;;;8.10;99.90;;;;;;5115967;28;20222;-80
2023/01/06 05:32:41;;;;;;;4.63;2.42;;;8.10;99.90;;;;;;5116093;28;20204;-80
2023/01/06 05:35:10;;;;;;;5.78;2.17;;;8.10;99.90;;;;;;5115981;28;20219;-80
2023/01/06 05:37:38;;;;;;;3.60;2.13;;;8.10;99.90;;;;;;5115888;28;20208;-80
2023/01/06 05:40:07;;;;;;;3.75;2.10;;;8.20;99.90;;;;;;5115845;28;20208;-80
2023/01/06 05:42:36;;;;;;;2.63;2.35;;;8.20;99.90;;;;;;5115527;28;20228;-80
2023/01/06 05:45:05;;;;;;;5.20;2.33;;;8.20;99.90;;;;;;5114824;28;20325;-80
2023/01/06 05:47:33;;;;;;;28.15;2.28;;;8.20;99.90;;;;;;5115412;28;20200;-80
2023/01/06 05:50:03;;;;;;;5.65;2.50;;;8.30;99.90;;;;;;5115932;28;20206;-80
2023/01/06 05:52:31;;;;;;;4.07;2.15;;;8.30;99.90;;;;;;5115718;28;20212;-80
2023/01/06 05:54:59;;;;;;;9.50;2.17;;;8.30;99.90;;;;;;5115844;28;20214;-80
2023/01/06 05:57:27;;;;;;;12.75;2.80;;;8.40;99.90;;;;;;5115208;28;20290;-80
2023/01/06 05:59:56;;;;;;;8.77;2.92;;;8.40;99.90;;;;;;5115433;28;20216;-80
2023/01/06 06:02:24;;;;;;;2.70;2.08;;;8.40;99.90;;;;;;5115417;28;20224;-80
2023/01/06 06:04:52;;;;;;;4.78;2.10;;;8.50;99.90;;;;;;5115044;28;20294;-80
2023/01/06 06:07:22;;;;;;;9.27;2.72;;;8.60;99.90;;;;;;5115029;28;20199;-81
2023/01/06 06:09:50;;;;;;;4.78;2.28;;;8.60;99.90;;;;;;5115745;28;20200;-80
2023/01/06 06:12:18;;;;;;;4.28;2.15;;;8.60;99.90;;;;;;5115020;28;20223;-80
2023/01/06 06:14:46;;;;;;;7.97;2.63;;;8.60;99.90;;;;;;5115067;28;20206;-80
2023/01/06 06:17:15;;;;;;;5.13;3.03;;;8.60;99.90;;;;;;5114671;28;20226;-80
2023/01/06 06:19:43;;;;;;;3.70;2.28;;;8.60;99.90;;;;;;5114974;28;20204;-80
2023/01/06 06:22:11;;;;;;;2.83;2.10;;;8.60;99.90;;;;;;5114664;28;20245;-80
2023/01/06 06:24:41;;;;;;;4.65;2.72;;;8.60;99.90;;;;;;5115001;28;20207;-80
2023/01/06 06:27:09;;;;;;;6.20;2.10;;;8.70;99.90;;;;;;5114833;28;20203;-80
2023/01/06 06:29:37;;;;;;;8.65;2.78;;;8.70;99.90;;;;;;5115029;28;20200;-80
2023/01/06 06:32:05;;;;;;;5.45;2.55;;;8.70;99.90;;;;;;5114740;28;20204;-80
2023/01/06 06:34:34;;;;;;;7.60;2.35;;;8.70;99.90;;;;;;5114792;28;20290;-81
2023/01/06 06:37:02;;;;;;;4.85;2.30;;;8.80;99.90;;;;;;5114845;28;20231;-80
2023/01/06 06:39:33;;;;;;;4.25;2.53;;;8.80;99.90;;;;;;5114296;28;20298;-84
2023/01/06 06:42:03;;;;;;;3.63;2.70;;;8.80;99.90;;;;;;5114607;28;20220;-80
2023/01/06 06:44:31;;;;;;;6.32;2.60;;;8.80;99.90;;;;;;5114036;28;20219;-80
2023/01/06 06:46:59;;;;;;;2.88;2.10;;;8.80;99.90;;;;;;5113852;28;20245;-80
2023/01/06 06:49:27;;;;;;;3.90;2.47;;;8.80;99.90;;;;;;5114695;28;20206;-80
2023/01/06 06:51:55;;;;;;;7.70;2.53;;;8.80;99.90;;;;;;5114530;28;20213;-80
2023/01/06 06:54:24;;;;;;;6.15;2.88;;;8.80;99.90;;;;;;5114332;28;20203;-80
2023/01/06 06:56:52;;;;;;;3.78;2.25;;;8.80;99.90;;;;;;5113685;28;20234;-79
2023/01/06 06:59:21;;;;;;;6.97;3.22;;;8.80;99.90;;;;;;5114395;28;20220;-79
2023/01/06 07:01:50;;;;;;;5.45;2.67;;;8.70;99.90;;;;;;5114061;28;20215;-79
2023/01/06 07:04:18;;;;;;;8.77;3.17;;;8.70;99.90;;;;;;5114248;28;20208;-83
2023/01/06 07:06:47;;;;;;;4.40;2.40;;;8.80;99.90;;;;;;5114341;28;20228;-83
2023/01/06 07:09:15;;;;;;;4.95;3.00;;;8.90;99.90;;;;;;5113979;28;20235;-80
2023/01/06 07:11:45;;;;;;;11.45;3.28;;;8.90;99.90;;;;;;5114006;28;20207;-80
2023/01/06 07:14:13;;;;;;;7.68;2.85;;;8.90;99.90;;;;;;5113944;28;20205;-79
2023/01/06 07:16:42;;;;;;;6.88;3.33;;;8.90;99.90;;;;;;5114205;28;20219;-79
2023/01/06 07:19:11;;;;;;;8.45;3.10;;;8.90;99.90;;;;;;5114504;28;20205;-79
2023/01/06 07:21:39;;;;;;;7.93;2.92;;;9.00;99.90;;;;;;5113824;28;20226;-79
2023/01/06 07:24:08;;;;;;;5.97;3.45;;;9.00;99.90;;;;;;5113599;28;20238;-79
2023/01/06 07:26:36;;;;;;;6.07;3.30;;;9.00;99.90;;;;;;5113745;28;20318;-79
2023/01/06 07:29:04;;;;;;;12.75;4.32;;;9.00;99.90;;;;;;5113872;28;20234;-80
2023/01/06 07:31:33;;;;;;;10.93;4.22;;;9.10;99.90;;;;;;5113935;28;20203;-80
2023/01/06 07:34:02;;;;;;;5.60;3.15;;;9.10;99.90;;;;;;5113477;28;20263;-81
2023/01/06 07:36:31;;;;;;;15.05;3.35;;;9.00;99.90;;;;;;5113308;28;20231;-81
2023/01/06 07:38:59;;;;;;;9.75;3.47;;;9.00;99.90;;;;;;5113078;28;20210;-81
2023/01/06 07:41:27;;;;;;;4.38;2.55;;;8.90;99.90;;;;;;5113471;28;20214;-81
2023/01/06 07:43:55;;;;;;;6.40;2.92;;;8.90;99.90;;;;;;5113548;28;20208;-81
2023/01/06 07:46:24;;;;;;;6.95;3.13;;;8.90;99.90;;;;;;5113187;28;20223;-81
2023/01/06 07:48:52;;;;;;;6.18;3.70;;;8.80;99.90;;;;;;5112784;28;20202;-81
2023/01/06 07:51:22;;;;;;;8.10;3.00;;;8.90;99.90;;;;;;5113263;28;20211;-80
2023/01/06 07:53:50;;;;;;;5.05;2.90;;;8.80;99.90;;;;;;5113444;28;20200;-80
2023/01/06 07:56:20;;;;;;;12.57;4.18;;;8.90;99.90;;;;;;5113133;28;20223;-80
2023/01/06 07:58:48;;;;;;;7.68;3.10;;;8.90;99.90;;;;;;5113011;28;20200;-79
2023/01/06 08:01:17;;;;;;;5.47;2.75;;;8.90;99.90;;;;;;5113065;28;20208;-80
2023/01/06 08:03:45;;;;;;;10.10;3.78;;;9.00;99.90;;;;;;5112837;28;20224;-80
2023/01/06 08:06:13;;;;;;;5.10;3.00;;;9.00;99.90;;;;;;5113230;28;20224;-80
2023/01/06 08:08:43;;;;;;;8.07;3.50;;;9.00;99.90;;;;;;5112343;28;20211;-81
2023/01/06 08:11:12;;;;;;;6.05;3.20;;;9.10;99.90;;;;;;5113310;28;20200;-81
2023/01/06 08:13:40;;;;;;;4.43;3.22;;;9.10;99.90;;;;;;5113059;28;20200;-80
2023/01/06 08:16:10;;;;;;;17.52;3.42;;;9.10;99.90;;;;;;5113283;28;20234;-80
2023/01/06 08:18:39;;;;;;;4.75;3.05;;;9.10;99.90;;;;;;5113088;28;20195;-81
2023/01/06 08:21:09;;;;;;;9.80;4.03;;;9.20;99.90;;;;;;5113274;28;20208;-80
2023/01/06 08:23:38;;;;;;;5.85;3.03;;;9.20;99.90;;;;;;5112661;28;20219;-81
2023/01/06 08:26:10;;;;;;;4.35;3.10;;;9.20;99.90;;;;;;5112884;28;20231;-81
2023/01/06 08:28:38;;;;;;;4.20;2.90;;;9.30;99.90;;;;;;5112697;28;20203;-80
2023/01/06 08:31:08;;;;;;;11.82;3.17;;;9.30;99.90;;;;;;5112674;28;20291;-80
2023/01/06 08:33:37;;;;;;;10.23;3.35;;;9.40;99.90;;;;;;5113004;28;20299;-81
2023/01/06 08:36:07;;;;;;;13.07;3.20;;;9.40;99.90;;;;;;5112981;28;20226;-80
2023/01/06 08:38:36;;;;;;;7.60;3.22;;;9.40;99.90;;;;;;5112735;28;20302;-80
2023/01/06 08:41:05;;;;;;;3.85;2.70;;;9.50;99.90;;;;;;5112697;28;20278;-81
2023/01/06 08:43:37;;;;;;;11.98;3.20;;;9.50;99.90;;;;;;5112603;28;20224;-80
2023/01/06 08:46:08;;;;;;;15.32;4.32;;;9.50;99.90;;;;;;5112724;28;20238;-80
2023/01/06 08:48:36;;;;;;;4.75;3.58;;;9.50;99.90;;;;;;5112673;28;20211;-80
2023/01/06 08:51:06;;;;;;;4.35;2.83;;;9.50;99.90;;;;;;5112539;28;20229;-80
2023/01/06 08:53:35;;;;;;;8.13;2.92;;;9.60;99.90;;;;;;5112695;28;20203;-80
2023/01/06 08:56:04;;;;;;;6.15;3.30;;;9.60;99.90;;;;;;5112366;28;20295;-80
2023/01/06 08:58:32;;;;;;;5.18;3.00;;;9.60;99.90;;;;;;5112672;28;20196;-80
2023/01/06 09:01:02;;;;;;;13.40;3.13;;;9.60;99.90;;;;;;5112535;28;20208;-80
2023/01/06 09:03:30;;;;;;;9.38;3.35;;;9.60;99.90;;;;;;5112614;28;20219;-80
2023/01/06 09:05:59;;;;;;;4.20;2.78;;;9.60;99.90;;;;;;5112592;28;20219;-80
2023/01/06 09:08:27;;;;;;;5.03;2.90;;;9.70;99.90;;;;;;5112599;28;20212;-85
2023/01/06 09:10:55;;;;;;;2.85;2.58;;;9.70;99.90;;;;;;5112811;28;20207;-84
2023/01/06 09:13:24;;;;;;;21.17;2.83;;;9.70;99.90;;;;;;5112425;28;20204;-84
2023/01/06 09:15:53;;;;;;;4.35;2.85;;;9.80;99.90;;;;;;5112549;28;20238;-84
2023/01/06 09:18:23;;;;;;;13.25;3.13;;;9.80;99.90;;;;;;5113050;28;20244;-84
2023/01/06 09:20:51;;;;;;;9.10;3.70;;;9.80;99.90;;;;;;5115336;28;20211;-84
2023/01/06 09:23:20;;;;;;;5.90;3.10;;;9.90;99.90;;;;;;5116223;28;20223;-85
2023/01/06 09:25:48;;;;;;;5.82;3.33;;;9.90;99.90;;;;;;5115877;28;20223;-84
2023/01/06 09:28:17;;;;;;;5.43;3.25;;;9.90;99.90;;;;;;5116359;28;20219;-85
2023/01/06 09:30:47;;;;;;;5.13;3.28;;;10.00;99.90;;;;;;5116091;28;20211;-84
2023/01/06 09:33:16;;;;;;;4.57;3.90;;;10.10;99.90;;;;;;5116109;28;20223;-84
2023/01/06 09:35:46;;;;;;;4.53;2.95;;;10.20;99.90;;;;;;5115799;28;20223;-85
2023/01/06 09:38:14;;;;;;;5.75;3.28;;;10.30;99.90;;;;;;5115615;28;20242;-85
2023/01/06 09:40:57;;;;;;;8.20;3.88;;;10.40;99.90;;;;;;5116018;28;20202;-85
2023/01/06 09:43:36;;;;;;;6.63;3.28;;;10.50;99.90;;;;;;5115202;28;20307;-85
2023/01/06 09:46:06;;;;;;;9.18;3.30;;;10.50;99.90;;;;;;5115709;28;20219;-84
2023/01/06 09:48:41;;;;;;;8.65;3.95;;;10.60;99.90;;;;;;5115860;28;20199;-84
2023/01/06 09:51:18;;;;;;;6.93;3.80;;;10.60;99.90;;;;;;5115885;28;20226;-84
2023/01/06 09:53:51;;;;;;;11.80;4.40;;;10.60;99.90;;;;;;5115932;28;20203;-84
2023/01/06 09:56:22;;;;;;;5.45;4.18;;;10.50;99.90;;;;;;5115742;28;20223;-84
2023/01/06 09:58:55;;;;;;;7.13;3.88;;;10.50;99.90;;;;;;5115618;28;20203;-84
2023/01/06 10:01:29;;;;;;;8.18;4.60;;;10.60;99.90;;;;;;5115426;28;20215;-84
2023/01/06 10:03:59;;;;;;;5.13;3.88;;;10.60;99.90;;;;;;5115372;28;20223;-84
2023/01/06 10:06:35;;;;;;;5.45;4.22;;;10.70;99.90;;;;;;5115163;28;20231;-84
2023/01/06 10:09:22;;;;;;;13.43;4.55;;;10.70;99.90;;;;;;5115171;28;20298;-80
2023/01/06 10:11:59;;;;;;;8.43;3.85;;;10.70;99.90;;;;;;5115763;28;20211;-80
2023/01/06 10:14:39;;;;;;;7.28;3.85;;;10.80;99.90;;;;;;5115266;28;20207;-80
2023/01/06 10:17:39;;;;;;;6.53;4.10;;;10.70;99.90;;;;;;5114994;28;20224;-80
2023/01/06 10:20:17;;;;;;;4.85;3.10;;;10.90;99.90;;;;;;5115125;28;20273;-80
2023/01/06 10:22:57;;;;;;;3.85;2.92;;;10.90;99.90;;;;;;5115062;28;20208;-79
2023/01/06 10:25:32;;;;;;;4.32;2.92;;;11.00;99.90;;;;;;5115207;28;20234;-79
2023/01/06 10:28:10;;;;;;;3.97;2.75;;;11.10;99.90;;;;;;5114681;28;20199;-80
2023/01/06 10:30:43;;;;;;;3.45;2.60;;;11.20;99.90;;;;;;5114317;28;20203;-80
2023/01/06 10:33:23;;;;;;;14.20;4.57;;;11.40;99.90;;;;;;5114874;28;20203;-84
2023/01/06 10:35:52;;;;;;;4.05;2.83;;;11.60;99.90;;;;;;5114753;28;20219;-84
2023/01/06 10:38:27;;;;;;;4.55;2.97;;;11.90;99.90;;;;;;5114692;28;20216;-84
2023/01/06 10:40:57;;;;;;;3.60;2.55;;;12.20;99.90;;;;;;5114467;28;20210;-84
2023/01/06 10:43:25;;;;;;;3.63;2.63;;;12.30;99.90;;;;;;5114550;28;20310;-84
2023/01/06 10:45:54;;;;;;;7.57;3.20;;;12.30;99.90;;;;;;5114812;28;20216;-84
2023/01/06 10:48:27;;;;;;;3.08;2.55;;;12.30;99.90;;;;;;5114550;27;20210;-84
2023/01/06 10:50:56;;;;;;;8.02;3.08;;;12.20;99.90;;;;;;5114833;28;20212;-84
2023/01/06 10:53:26;;;;;;;5.00;2.78;;;12.10;99.90;;;;;;5114571;28;20352;-84
2023/01/06 10:55:56;;;;;;;18.67;3.70;;;12.10;99.90;;;;;;5114265;28;20306;-84
2023/01/06 10:58:34;;;;;;;5.30;3.05;;;12.10;99.90;;;;;;5114363;28;20207;-84
2023/01/06 11:01:10;;;;;;;2.92;2.58;;;12.30;99.90;;;;;;5114198;28;20275;-84
2023/01/06 11:03:41;;;;;;;3.25;2.70;;;12.30;99.90;;;;;;5114334;28;20225;-84
2023/01/06 11:06:17;;;;;;;3.47;2.65;;;12.30;99.90;;;;;;5114514;28;20227;-84
2023/01/06 11:08:47;;;;;;;5.03;2.67;;;12.30;99.90;;;;;;5113968;28;20213;-84
2023/01/06 11:11:17;;;;;;;6.57;3.70;;;12.40;99.90;;;;;;5113903;28;20235;-84
2023/01/06 11:14:04;;;;;;;4.55;2.65;;;12.50;99.90;;;;;;5113718;28;20195;-84
2023/01/06 11:16:35;;;;;;;3.42;2.55;;;12.60;99.90;;;;;;5114387;28;20230;-84
2023/01/06 11:19:05;;;;;;;3.13;2.80;;;12.60;99.90;;;;;;5114211;28;20208;-84
2023/01/06 11:21:41;;;;;;;2.90;2.28;;;12.60;99.90;;;;;;5114157;28;20233;-84
2023/01/06 11:24:17;;;;;;;2.75;2.47;;;12.50;99.90;;;;;;5113821;28;20223;-84
2023/01/06 11:26:51;;;;;;;3.13;2.72;;;12.60;99.90;;;;;;5113436;28;20292;-84
2023/01/06 11:29:25;;;;;;;3.95;2.97;;;12.60;99.90;;;;;;5114084;28;20290;-84
2023/01/06 11:31:55;;;;;;;4.82;2.95;;;12.60;99.90;;;;;;5114177;28;20203;-84
2023/01/06 11:34:27;;;;;;;4.35;2.80;;;12.60;99.90;;;;;;5114201;28;20199;-84
2023/01/06 11:36:56;;;;;;;3.60;3.00;;;12.50;99.90;;;;;;5113194;28;20219;-84
2023/01/06 11:39:30;;;;;;;2.72;2.45;;;12.60;99.90;;;;;;5113788;28;20214;-84
2023/01/06 11:42:04;;;;;;;3.17;2.47;;;12.70;99.90;;;;;;5113286;28;20219;-84
2023/01/06 11:44:35;;;;;;;3.63;2.75;;;12.90;99.90;;;;;;5113275;28;20231;-84
2023/01/06 11:47:07;;;;;;;4.15;2.83;;;13.30;99.90;;;;;;5113468;28;20229;-85
2023/01/06 11:49:38;;;;;;;3.70;2.53;;;13.80;99.90;;;;;;5113604;28;20210;-84
2023/01/06 11:52:18;;;;;;;3.83;2.40;;;14.30;99.90;;;;;;5113432;28;20211;-84
2023/01/06 11:54:57;;;;;;;3.80;2.45;;;14.50;99.90;;;;;;5113321;28;20219;-84
2023/01/06 11:57:32;;;;;;;4.18;2.65;;;14.80;99.90;;;;;;5113228;28;20207;-84
2023/01/06 12:00:22;;;;;;;3.10;2.50;;;15.10;99.90;;;;;;5113167;28;20217;-84
2023/01/06 12:03:02;;;;;;;1.92;1.70;;;15.40;99.90;;;;;;5113636;28;20241;-84
2023/01/06 12:05:38;;;;;;;2.97;2.40;;;15.30;99.90;;;;;;5112926;28;20247;-85
2023/01/06 12:08:13;;;;;;;13.90;2.78;;;15.40;99.90;;;;;;5112945;28;20199;-83
2023/01/06 12:10:45;;;;;;;4.22;2.70;;;15.30;99.90;;;;;;5113213;28;20207;-84
2023/01/06 12:13:14;;;;;;;2.25;2.03;;;15.20;99.90;;;;;;5113025;28;20219;-83
2023/01/06 12:15:44;;;;;;;2.72;2.20;;;15.00;99.90;;;;;;5113043;28;20230;-83
2023/01/06 12:18:16;;;;;;;3.50;2.25;;;14.80;99.90;;;;;;5112834;28;20214;-83
2023/01/06 12:20:47;;;;;;;2.25;1.80;;;14.60;99.90;;;;;;5112966;28;20212;-84
2023/01/06 12:23:22;;;;;;;2.33;1.90;;;14.30;99.90;;;;;;5112910;28;20218;-84
2023/01/06 12:25:55;;;;;;;2.22;1.65;;;14.20;99.90;;;;;;5112778;28;20229;-84
2023/01/06 12:28:27;;;;;;;1.65;1.55;;;13.90;99.90;;;;;;5112961;28;20295;-84
2023/01/06 12:31:02;;;;;;;1.65;1.55;;;13.80;99.90;;;;;;5112997;28;20208;-83
2023/01/06 12:33:35;;;;;;;1.77;1.63;;;13.70;99.90;;;;;;5113149;28;20215;-84
2023/01/06 12:36:11;;;;;;;2.08;1.85;;;13.70;99.90;;;;;;5113052;28;20222;-84
2023/01/06 12:38:48;;;;;;;2.03;1.80;;;13.60;99.90;;;;;;5112652;28;20203;-83
2023/01/06 12:41:24;;;;;;;1.55;1.38;;;13.60;99.90;;;;;;5112574;28;20263;-83
2023/01/06 12:44:00;;;;;;;2.17;1.88;;;13.50;99.90;;;;;;5112294;28;20207;-84
2023/01/06 12:46:35;;;;;;;2.80;1.90;;;13.40;99.90;;;;;;5112374;28;20238;-83
2023/01/06 12:49:06;;;;;;;1.80;1.67;;;13.40;99.90;;;;;;5112888;28;20211;-83
2023/01/06 12:51:39;;;;;;;4.55;2.35;;;13.30;99.90;;;;;;5112937;28;20203;-84
2023/01/06 12:54:13;;;;;;;2.17;1.80;;;13.20;99.90;;;;;;5114225;28;20235;-83
2023/01/06 12:57:01;;;;;;;3.67;2.10;;;13.10;99.90;;;;;;5116503;28;20228;-83
2023/01/06 12:59:39;;;;;;;3.75;1.90;;;13.00;99.90;;;;;;5116848;28;20270;-84
2023/01/06 13:02:23;;;;;;;4.82;2.10;;;13.00;99.90;;;;;;5116881;28;20207;-84
2023/01/06 13:05:05;;;;;;;2.55;2.10;;;12.90;99.90;;;;;;5116374;28;20306;-84
2023/01/06 13:07:46;;;;;;;2.25;2.03;;;12.80;99.90;;;;;;5116323;28;20218;-85
2023/01/06 13:10:28;;;;;;;2.17;1.65;;;12.70;99.90;;;;;;5116633;28;20199;-84
2023/01/06 13:13:30;;;;;;;2.65;1.95;;;12.70;99.90;;;;;;5116390;28;20235;-84
2023/01/06 13:16:04;;;;;;;4.20;2.03;;;12.60;99.90;;;;;;5116575;28;20227;-83
2023/01/06 13:18:38;;;;;;;2.88;2.03;;;12.70;99.90;;;;;;5116452;28;20203;-85
2023/01/06 13:21:10;;;;;;;4.32;2.40;;;12.60;99.90;;;;;;5116486;28;20212;-84
2023/01/06 13:23:58;;;;;;;2.38;2.17;;;12.60;99.90;;;;;;5116328;28;20207;-84
2023/01/06 13:26:55;;;;;;;1.85;1.75;;;12.60;99.90;;;;;;5115743;28;20238;-84